createdAt,value
2023-02-14T00:00:03.282Z,64.25
2023-02-14T00:01:10.629Z,64.67
2023-02-14T00:02:12.389Z,64.81
2023-02-14T00:03:14.752Z,63.96
2023-02-14T00:04:18.126Z,64.06
2023-02-14T00:05:20.052Z,63.53
2023-02-14T00:06:21.916Z,63.72
2023-02-14T00:07:23.940Z,65.06
2023-02-14T00:08:25.807Z,64.90
2023-02-14T00:09:27.549Z,65.41
2023-02-14T00:10:29.811Z,64.58
2023-02-14T00:11:31.816Z,64.25
2023-02-14T00:12:33.654Z,64.08
2023-02-14T00:13:35.463Z,64.91
2023-02-14T00:14:55.908Z,65.41
2023-02-14T00:15:57.876Z,65.42
2023-02-14T00:17:00.307Z,64.47
2023-02-14T00:18:03.539Z,64.99
2023-02-14T00:19:05.361Z,64.93
2023-02-14T00:20:07.767Z,66.84
2023-02-14T00:21:09.789Z,64.98
2023-02-14T00:22:11.598Z,65.61
2023-02-14T00:23:13.401Z,64.93
2023-02-14T00:24:18.338Z,64.77
2023-02-14T00:25:20.133Z,65.60
2023-02-14T00:26:21.957Z,67.51
2023-02-14T00:27:24.022Z,66.77
2023-02-14T00:28:26.018Z,66.31
2023-02-14T00:29:30.352Z,65.66
2023-02-14T00:30:32.339Z,64.89
2023-02-14T00:31:35.287Z,64.75
2023-02-14T00:32:40.593Z,66.81
2023-02-14T00:33:42.436Z,67.15
2023-02-14T00:34:44.288Z,68.00
2023-02-14T00:35:46.141Z,67.76
2023-02-14T00:36:48.385Z,67.87
2023-02-14T00:37:50.151Z,67.35
2023-02-14T00:38:52.436Z,67.49
2023-02-14T00:39:54.278Z,66.07
2023-02-14T00:40:56.140Z,67.61
2023-02-14T00:41:58.006Z,66.72
2023-02-14T00:42:59.769Z,67.27
2023-02-14T00:44:02.055Z,65.75
2023-02-14T00:45:03.986Z,65.88
2023-02-14T00:46:05.855Z,65.61
2023-02-14T00:47:08.269Z,65.25
2023-02-14T00:48:10.196Z,65.54
2023-02-14T00:49:12.157Z,65.09
2023-02-14T00:50:13.972Z,65.20
2023-02-14T00:51:18.368Z,64.83
2023-02-14T00:52:20.247Z,64.48
2023-02-14T00:53:22.018Z,64.39
2023-02-14T00:54:23.868Z,64.62
2023-02-14T00:55:25.677Z,64.48
2023-02-14T00:56:27.803Z,64.48
2023-02-14T00:57:29.606Z,64.81
2023-02-14T00:58:31.937Z,64.76
2023-02-14T00:59:33.806Z,65.09
2023-02-14T01:00:35.722Z,64.19
2023-02-14T01:01:38.313Z,64.37
2023-02-14T01:02:40.309Z,64.50
2023-02-14T01:03:42.208Z,65.18
2023-02-14T01:04:44.238Z,65.43
2023-02-14T01:05:47.826Z,65.14
2023-02-14T01:06:49.724Z,65.59
2023-02-14T01:07:51.497Z,64.87
2023-02-14T01:08:53.415Z,63.97
2023-02-14T01:09:55.228Z,64.22
2023-02-14T01:10:57.548Z,65.06
2023-02-14T01:11:59.466Z,66.12
2023-02-14T01:13:01.296Z,65.34
2023-02-14T01:14:03.094Z,64.81
2023-02-14T01:15:05.173Z,64.37
2023-02-14T01:16:12.800Z,65.18
2023-02-14T01:17:14.605Z,64.63
2023-02-14T01:18:18.758Z,65.96
2023-02-14T01:19:20.782Z,64.82
2023-02-14T01:20:22.639Z,65.49
2023-02-14T01:21:32.962Z,65.65
2023-02-14T01:22:38.360Z,65.39
2023-02-14T01:23:40.653Z,65.04
2023-02-14T01:24:42.484Z,65.33
2023-02-14T01:25:44.280Z,65.05
2023-02-14T01:26:46.064Z,66.53
2023-02-14T01:27:47.849Z,65.71
2023-02-14T01:28:49.857Z,66.16
2023-02-14T01:29:51.818Z,66.10
2023-02-14T01:30:53.681Z,65.48
2023-02-14T01:31:55.539Z,65.26
2023-02-14T01:32:57.315Z,65.08
2023-02-14T01:33:59.656Z,65.11
2023-02-14T01:35:01.457Z,64.96
2023-02-14T01:36:03.716Z,64.99
2023-02-14T01:37:05.581Z,65.46
2023-02-14T01:38:07.586Z,65.32
2023-02-14T01:39:14.849Z,65.76
2023-02-14T01:40:17.197Z,64.56
2023-02-14T01:41:19.136Z,64.17
2023-02-14T01:42:20.986Z,65.09
2023-02-14T01:43:22.855Z,65.55
2023-02-14T01:44:37.193Z,67.09
2023-02-14T01:45:39.039Z,67.22
2023-02-14T01:46:42.384Z,67.38
2023-02-14T01:47:47.171Z,66.43
2023-02-14T01:48:49.505Z,64.73
2023-02-14T01:49:58.274Z,66.32
2023-02-14T01:51:00.357Z,67.25
2023-02-14T01:52:20.077Z,67.27
2023-02-14T01:53:27.052Z,65.90
2023-02-14T01:54:29.555Z,65.54
2023-02-14T01:55:34.289Z,66.32
2023-02-14T01:56:43.942Z,65.26
2023-02-14T01:57:59.908Z,66.12
2023-02-14T01:59:03.493Z,67.42
2023-02-14T02:00:25.229Z,66.84
2023-02-14T02:01:28.302Z,65.79
2023-02-14T02:02:30.287Z,63.77
2023-02-14T02:03:38.564Z,63.56
2023-02-14T02:04:45.032Z,63.25
2023-02-14T02:05:54.989Z,63.38
2023-02-14T02:07:09.136Z,63.32
2023-02-14T02:08:11.879Z,63.00
2023-02-14T02:09:21.827Z,63.54
2023-02-14T02:10:24.369Z,63.62
2023-02-14T02:11:26.734Z,63.74
2023-02-14T02:12:30.801Z,63.96
2023-02-14T02:13:33.283Z,63.78
2023-02-14T02:14:35.357Z,64.13
2023-02-14T02:15:52.476Z,64.76
2023-02-14T02:16:57.329Z,64.75
2023-02-14T02:18:10.534Z,64.73
2023-02-14T02:19:14.924Z,64.40
2023-02-14T02:20:22.683Z,63.90
2023-02-14T02:21:56.344Z,63.40
2023-02-14T02:23:09.977Z,64.61
2023-02-14T02:24:24.624Z,64.37
2023-02-14T02:26:07.855Z,63.76
2023-02-14T02:27:26.043Z,63.55
2023-02-14T02:28:52.616Z,63.59
2023-02-14T02:30:00.451Z,63.27
2023-02-14T02:31:37.886Z,63.64
2023-02-14T02:32:58.474Z,63.45
2023-02-14T02:34:15.296Z,63.38
2023-02-14T02:35:35.250Z,63.63
2023-02-14T02:36:55.424Z,64.24
2023-02-14T02:38:03.231Z,63.64
2023-02-14T02:39:28.589Z,63.49
2023-02-14T02:40:52.093Z,63.24
2023-02-14T02:42:23.103Z,62.72
2023-02-14T02:43:35.855Z,63.53
2023-02-14T02:44:43.052Z,64.23
2023-02-14T02:46:20.771Z,63.98
2023-02-14T02:47:25.217Z,63.97
2023-02-14T02:48:45.344Z,64.20
2023-02-14T02:50:05.417Z,63.55
2023-02-14T02:51:31.981Z,62.49
2023-02-14T02:53:03.850Z,62.87
2023-02-14T02:54:14.833Z,63.21
2023-02-14T02:55:26.408Z,63.03
2023-02-14T02:56:46.252Z,62.71
2023-02-14T02:57:50.227Z,62.08
2023-02-14T02:58:56.836Z,62.30
2023-02-14T02:59:59.817Z,62.66
2023-02-14T03:01:07.226Z,62.73
2023-02-14T03:02:15.121Z,63.39
2023-02-14T03:03:36.564Z,63.88
2023-02-14T03:04:56.256Z,63.30
2023-02-14T03:05:58.140Z,62.49
2023-02-14T03:07:00.054Z,62.48
2023-02-14T03:08:06.487Z,62.43
2023-02-14T03:09:20.512Z,62.51
2023-02-14T03:10:26.075Z,62.49
2023-02-14T03:11:28.150Z,62.58
2023-02-14T03:12:33.017Z,62.71
2023-02-14T03:13:59.496Z,63.47
2023-02-14T03:15:36.447Z,63.66
2023-02-14T03:17:00.052Z,63.16
2023-02-14T03:18:33.880Z,63.03
2023-02-14T03:20:09.294Z,63.55
2023-02-14T03:21:41.222Z,63.40
2023-02-14T03:22:43.012Z,63.15
2023-02-14T03:23:56.409Z,62.43
2023-02-14T03:25:11.970Z,62.69
2023-02-14T03:26:38.175Z,62.66
2023-02-14T03:27:55.832Z,62.83
2023-02-14T03:29:10.194Z,62.99
2023-02-14T03:30:20.666Z,63.55
2023-02-14T03:31:57.875Z,63.70
2023-02-14T03:33:05.376Z,63.54
2023-02-14T03:34:24.164Z,63.68
2023-02-14T03:35:32.817Z,63.49
2023-02-14T03:36:39.981Z,63.97
2023-02-14T03:37:53.889Z,63.33
2023-02-14T03:39:22.185Z,63.73
2023-02-14T03:40:38.822Z,63.65
2023-02-14T03:41:49.411Z,62.73
2023-02-14T03:42:56.025Z,62.56
2023-02-14T03:44:01.486Z,62.99
2023-02-14T03:45:06.591Z,65.36
2023-02-14T03:46:17.777Z,64.90
2023-02-14T03:47:24.233Z,63.68
2023-02-14T03:48:29.127Z,63.24
2023-02-14T03:49:35.101Z,63.41
2023-02-14T03:50:39.060Z,62.92
2023-02-14T03:51:44.373Z,63.44
2023-02-14T03:52:49.968Z,64.18
2023-02-14T03:53:54.954Z,65.36
2023-02-14T03:54:58.514Z,65.58
2023-02-14T03:56:27.109Z,64.69
2023-02-14T03:57:43.171Z,62.49
2023-02-14T03:58:57.691Z,63.36
2023-02-14T03:59:59.789Z,62.94
2023-02-14T04:01:12.557Z,63.15
2023-02-14T04:02:22.101Z,63.19
2023-02-14T04:03:25.692Z,62.80
2023-02-14T04:04:31.413Z,62.77
2023-02-14T04:05:33.496Z,63.41
2023-02-14T04:06:35.652Z,63.53
2023-02-14T04:07:46.191Z,63.79
2023-02-14T04:08:48.157Z,63.70
2023-02-14T04:09:50.274Z,64.04
2023-02-14T04:10:53.045Z,64.03
2023-02-14T04:11:55.022Z,63.86
2023-02-14T04:12:56.820Z,63.79
2023-02-14T04:13:58.611Z,64.40
2023-02-14T04:15:00.452Z,63.83
2023-02-14T04:16:06.385Z,62.43
2023-02-14T04:17:27.160Z,62.70
2023-02-14T04:18:47.525Z,63.42
2023-02-14T04:19:49.386Z,63.29
2023-02-14T04:20:51.190Z,63.91
2023-02-14T04:21:53.444Z,64.54
2023-02-14T04:22:55.265Z,64.47
2023-02-14T04:23:57.087Z,64.12
2023-02-14T04:24:58.817Z,63.27
2023-02-14T04:26:00.721Z,63.21
2023-02-14T04:27:11.799Z,63.92
2023-02-14T04:28:14.206Z,64.72
2023-02-14T04:29:16.006Z,64.57
2023-02-14T04:30:18.410Z,63.83
2023-02-14T04:31:20.355Z,63.38
2023-02-14T04:32:22.814Z,63.89
2023-02-14T04:33:24.631Z,64.48
2023-02-14T04:34:26.434Z,64.47
2023-02-14T04:35:28.156Z,62.97
2023-02-14T04:36:30.316Z,62.20
2023-02-14T04:37:32.106Z,62.27
2023-02-14T04:38:34.003Z,62.60
2023-02-14T04:39:36.522Z,62.49
2023-02-14T04:40:38.366Z,62.51
2023-02-14T04:41:40.171Z,62.76
2023-02-14T04:42:42.014Z,62.14
2023-02-14T04:43:43.866Z,62.61
2023-02-14T04:44:45.698Z,63.03
2023-02-14T04:45:47.834Z,63.04
2023-02-14T04:46:49.818Z,62.25
2023-02-14T04:47:51.791Z,62.31
2023-02-14T04:48:53.581Z,62.51
2023-02-14T04:49:55.714Z,62.93
2023-02-14T04:50:57.667Z,62.48
2023-02-14T04:51:59.638Z,62.08
2023-02-14T04:53:01.424Z,62.06
2023-02-14T04:54:03.276Z,62.44
2023-02-14T04:55:05.900Z,62.49
2023-02-14T04:56:08.124Z,63.17
2023-02-14T04:57:10.069Z,62.38
2023-02-14T04:58:11.853Z,62.33
2023-02-14T04:59:14.757Z,62.44
2023-02-14T05:00:16.954Z,62.37
2023-02-14T05:01:18.821Z,62.34
2023-02-14T05:02:20.728Z,62.54
2023-02-14T05:03:22.673Z,62.56
2023-02-14T05:04:24.877Z,62.57
2023-02-14T05:05:26.723Z,62.65
2023-02-14T05:06:29.033Z,62.85
2023-02-14T05:07:30.797Z,62.52
2023-02-14T05:08:32.868Z,62.11
2023-02-14T05:09:35.059Z,62.00
2023-02-14T05:10:36.861Z,62.38
2023-02-14T05:11:38.650Z,63.08
2023-02-14T05:12:40.420Z,62.81
2023-02-14T05:13:42.268Z,62.81
2023-02-14T05:14:44.108Z,63.02
2023-02-14T05:15:46.303Z,62.97
2023-02-14T05:16:48.148Z,63.33
2023-02-14T05:17:51.484Z,63.12
2023-02-14T05:18:53.246Z,62.79
2023-02-14T05:19:55.157Z,61.86
2023-02-14T05:20:57.542Z,62.21
2023-02-14T05:21:59.575Z,62.62
2023-02-14T05:23:03.437Z,62.74
2023-02-14T05:24:05.669Z,62.61
2023-02-14T05:25:07.966Z,62.55
2023-02-14T05:26:09.849Z,62.53
2023-02-14T05:27:12.003Z,62.59
2023-02-14T05:28:13.887Z,62.46
2023-02-14T05:29:16.013Z,62.11
2023-02-14T05:30:18.340Z,62.40
2023-02-14T05:31:20.343Z,62.68
2023-02-14T05:32:22.334Z,62.34
2023-02-14T05:33:24.977Z,63.05
2023-02-14T05:34:26.793Z,62.31
2023-02-14T05:35:28.598Z,62.46
2023-02-14T05:36:30.746Z,62.37
2023-02-14T05:37:32.623Z,62.31
2023-02-14T05:38:34.980Z,62.11
2023-02-14T05:39:36.853Z,62.68
2023-02-14T05:40:38.923Z,62.92
2023-02-14T05:41:41.423Z,63.17
2023-02-14T05:42:43.638Z,62.07
2023-02-14T05:43:45.510Z,62.73
2023-02-14T05:44:48.740Z,63.17
2023-02-14T05:45:50.581Z,62.71
2023-02-14T05:46:52.636Z,62.69
2023-02-14T05:47:54.488Z,62.59
2023-02-14T05:48:56.450Z,62.22
2023-02-14T05:49:58.396Z,62.50
2023-02-14T05:51:13.100Z,61.94
2023-02-14T05:52:14.849Z,62.88
2023-02-14T05:53:16.697Z,62.88
2023-02-14T05:54:18.521Z,62.83
2023-02-14T05:55:20.452Z,63.31
2023-02-14T05:56:22.666Z,62.84
2023-02-14T05:57:25.633Z,62.16
2023-02-14T05:58:27.625Z,62.25
2023-02-14T05:59:29.434Z,62.25
2023-02-14T06:00:31.460Z,61.93
2023-02-14T06:01:33.314Z,61.92
2023-02-14T06:02:35.235Z,61.94
2023-02-14T06:03:37.120Z,62.26
2023-02-14T06:04:39.096Z,62.43
2023-02-14T06:05:40.929Z,62.03
2023-02-14T06:06:42.712Z,62.12
2023-02-14T06:07:50.646Z,61.95
2023-02-14T06:08:52.450Z,61.61
2023-02-14T06:09:54.263Z,62.02
2023-02-14T06:10:56.140Z,62.65
2023-02-14T06:11:58.913Z,62.66
2023-02-14T06:13:00.853Z,62.20
2023-02-14T06:14:02.727Z,62.53
2023-02-14T06:15:04.853Z,62.55
2023-02-14T06:16:06.720Z,62.28
2023-02-14T06:17:11.815Z,62.48
2023-02-14T06:18:13.594Z,62.55
2023-02-14T06:19:15.476Z,62.92
2023-02-14T06:20:17.289Z,62.99
2023-02-14T06:21:19.106Z,63.15
2023-02-14T06:22:21.504Z,63.02
2023-02-14T06:23:23.316Z,62.83
2023-02-14T06:24:25.129Z,62.51
2023-02-14T06:25:27.016Z,62.57
2023-02-14T06:26:28.972Z,62.55
2023-02-14T06:27:31.242Z,62.58
2023-02-14T06:28:33.143Z,62.96
2023-02-14T06:29:34.932Z,63.59
2023-02-14T06:30:36.926Z,63.60
2023-02-14T06:31:38.976Z,63.32
2023-02-14T06:32:40.875Z,63.36
2023-02-14T06:33:42.830Z,63.55
2023-02-14T06:34:45.745Z,63.46
2023-02-14T06:35:47.633Z,63.68
2023-02-14T06:36:49.519Z,63.90
2023-02-14T06:37:51.498Z,64.09
2023-02-14T06:38:53.502Z,64.01
2023-02-14T06:39:55.801Z,64.43
2023-02-14T06:41:06.118Z,65.72
2023-02-14T06:42:08.092Z,66.46
2023-02-14T06:43:09.907Z,66.54
2023-02-14T06:44:11.743Z,66.61
2023-02-14T06:45:13.614Z,66.24
2023-02-14T06:46:16.832Z,66.16
2023-02-14T06:47:19.065Z,66.38
2023-02-14T06:48:20.987Z,66.08
2023-02-14T06:49:23.972Z,65.71
2023-02-14T06:50:25.807Z,65.57
2023-02-14T06:51:27.640Z,65.66
2023-02-14T06:52:29.545Z,65.48
2023-02-14T06:53:31.409Z,65.51
2023-02-14T06:54:33.255Z,65.53
2023-02-14T06:55:35.159Z,66.03
2023-02-14T06:56:37.009Z,65.53
2023-02-14T06:57:40.222Z,65.20
2023-02-14T06:58:42.529Z,65.36
2023-02-14T06:59:44.539Z,65.16
2023-02-14T07:00:47.738Z,65.43
2023-02-14T07:01:50.457Z,65.68
2023-02-14T07:02:53.011Z,66.58
2023-02-14T07:03:54.966Z,66.72
2023-02-14T07:04:56.764Z,66.87
2023-02-14T07:05:58.601Z,66.64
2023-02-14T07:07:01.500Z,66.64
2023-02-14T07:08:03.638Z,67.32
2023-02-14T07:09:06.360Z,67.28
2023-02-14T07:10:08.469Z,67.37
2023-02-14T07:11:10.390Z,67.10
2023-02-14T07:12:12.190Z,67.70
2023-02-14T07:13:14.436Z,67.60
2023-02-14T07:14:16.277Z,66.81
2023-02-14T07:15:18.092Z,66.55
2023-02-14T07:16:19.959Z,66.41
2023-02-14T07:17:22.137Z,66.32
2023-02-14T07:18:24.059Z,66.28
2023-02-14T07:19:26.034Z,66.32
2023-02-14T07:20:28.115Z,66.36
2023-02-14T07:21:29.919Z,66.28
2023-02-14T07:22:31.752Z,66.36
2023-02-14T07:23:33.577Z,66.48
2023-02-14T07:24:35.506Z,66.06
2023-02-14T07:25:40.765Z,65.92
2023-02-14T07:26:42.753Z,65.86
2023-02-14T07:27:44.797Z,65.83
2023-02-14T07:28:49.197Z,65.83
2023-02-14T07:29:51.127Z,65.76
2023-02-14T07:30:53.141Z,65.82
2023-02-14T07:31:55.377Z,65.68
2023-02-14T07:32:58.183Z,65.62
2023-02-14T07:34:02.492Z,65.71
2023-02-14T07:35:04.734Z,65.60
2023-02-14T07:36:08.020Z,65.46
2023-02-14T07:37:10.200Z,65.21
2023-02-14T07:38:12.086Z,65.24
2023-02-14T07:39:13.908Z,65.22
2023-02-14T07:40:16.064Z,65.19
2023-02-14T07:41:18.096Z,65.54
2023-02-14T07:42:19.900Z,65.36
2023-02-14T07:43:24.310Z,65.21
2023-02-14T07:44:27.012Z,64.89
2023-02-14T07:45:28.883Z,64.54
2023-02-14T07:46:37.267Z,64.48
2023-02-14T07:47:39.557Z,64.74
2023-02-14T07:48:41.533Z,64.65
2023-02-14T07:49:43.733Z,64.65
2023-02-14T07:50:45.733Z,64.38
2023-02-14T07:51:48.260Z,64.46
2023-02-14T07:52:50.240Z,64.53
2023-02-14T07:53:52.070Z,64.39
2023-02-14T07:54:54.042Z,64.69
2023-02-14T07:55:58.589Z,64.65
2023-02-14T07:57:01.045Z,65.03
2023-02-14T07:58:03.562Z,64.98
2023-02-14T07:59:09.659Z,65.34
2023-02-14T08:00:17.316Z,65.12
2023-02-14T08:01:21.250Z,64.89
2023-02-14T08:02:23.257Z,65.06
2023-02-14T08:03:25.204Z,64.51
2023-02-14T08:04:27.139Z,64.31
2023-02-14T08:05:28.921Z,63.29
2023-02-14T08:06:30.677Z,63.24
2023-02-14T08:07:32.435Z,64.01
2023-02-14T08:08:34.301Z,63.30
2023-02-14T08:09:36.287Z,63.15
2023-02-14T08:10:38.188Z,62.86
2023-02-14T08:11:58.553Z,62.61
2023-02-14T08:13:00.540Z,62.53
2023-02-14T08:14:03.664Z,62.37
2023-02-14T08:15:24.198Z,62.19
2023-02-14T08:16:26.221Z,62.10
2023-02-14T08:17:28.047Z,62.22
2023-02-14T08:18:32.668Z,61.82
2023-02-14T08:19:34.638Z,61.74
2023-02-14T08:20:36.656Z,61.77
2023-02-14T08:21:38.605Z,62.13
2023-02-14T08:22:40.510Z,62.33
2023-02-14T08:23:42.353Z,61.51
2023-02-14T08:24:45.066Z,61.96
2023-02-14T08:25:49.034Z,62.17
2023-02-14T08:26:51.436Z,62.47
2023-02-14T08:27:55.345Z,61.96
2023-02-14T08:28:57.641Z,61.94
2023-02-14T08:29:59.856Z,62.00
2023-02-14T08:31:03.491Z,61.52
2023-02-14T08:32:05.746Z,61.23
2023-02-14T08:33:08.039Z,61.20
2023-02-14T08:34:11.521Z,60.65
2023-02-14T08:35:15.556Z,61.00
2023-02-14T08:36:18.067Z,60.93
2023-02-14T08:37:20.585Z,60.92
2023-02-14T08:38:22.801Z,60.97
2023-02-14T08:39:24.965Z,60.51
2023-02-14T08:40:29.850Z,61.51
2023-02-14T08:41:35.127Z,60.75
2023-02-14T08:42:37.079Z,60.68
2023-02-14T08:43:39.192Z,60.43
2023-02-14T08:44:41.070Z,60.31
2023-02-14T08:46:18.912Z,60.05
2023-02-14T08:47:24.507Z,60.06
2023-02-14T08:48:29.814Z,59.64
2023-02-14T08:49:32.602Z,59.56
2023-02-14T08:50:35.099Z,59.62
2023-02-14T08:51:37.089Z,60.41
2023-02-14T08:52:43.841Z,60.59
2023-02-14T08:53:46.436Z,60.76
2023-02-14T08:54:48.335Z,60.91
2023-02-14T08:55:50.175Z,59.84
2023-02-14T08:56:52.032Z,59.57
2023-02-14T08:57:57.888Z,60.29
2023-02-14T08:58:59.737Z,59.12
2023-02-14T09:00:02.029Z,59.01
2023-02-14T09:01:11.313Z,59.23
2023-02-14T09:02:13.800Z,58.79
2023-02-14T09:03:15.685Z,58.81
2023-02-14T09:04:17.583Z,57.97
2023-02-14T09:05:21.000Z,57.59
2023-02-14T09:06:22.805Z,57.38
2023-02-14T09:07:24.746Z,56.90
2023-02-14T09:08:26.646Z,56.99
2023-02-14T09:09:28.669Z,56.91
2023-02-14T09:10:30.860Z,56.40
2023-02-14T09:11:33.570Z,56.12
2023-02-14T09:12:39.208Z,56.18
2023-02-14T09:13:42.554Z,56.26
2023-02-14T09:14:45.117Z,56.18
2023-02-14T09:15:46.941Z,56.31
2023-02-14T09:16:48.748Z,56.94
2023-02-14T09:17:51.924Z,56.57
2023-02-14T09:18:54.667Z,56.33
2023-02-14T09:19:56.931Z,56.26
2023-02-14T09:20:59.245Z,55.97
2023-02-14T09:22:03.854Z,55.77
2023-02-14T09:23:05.805Z,55.33
2023-02-14T09:24:07.582Z,55.13
2023-02-14T09:25:09.580Z,55.29
2023-02-14T09:26:13.974Z,55.32
2023-02-14T09:27:16.146Z,55.74
2023-02-14T09:28:18.707Z,55.62
2023-02-14T09:29:20.775Z,55.32
2023-02-14T09:30:22.722Z,55.13
2023-02-14T09:31:25.664Z,55.27
2023-02-14T09:32:29.200Z,55.18
2023-02-14T09:33:31.268Z,54.72
2023-02-14T09:34:34.154Z,54.74
2023-02-14T09:35:35.996Z,54.56
2023-02-14T09:36:56.963Z,54.55
2023-02-14T09:38:18.064Z,54.65
2023-02-14T09:39:20.207Z,54.08
2023-02-14T09:40:22.891Z,53.43
2023-02-14T09:41:30.542Z,53.26
2023-02-14T09:42:43.784Z,53.49
2023-02-14T09:43:53.028Z,53.63
2023-02-14T09:45:01.970Z,52.52
2023-02-14T09:46:04.917Z,52.57
2023-02-14T09:47:30.170Z,52.73
2023-02-14T09:48:36.476Z,53.14
2023-02-14T09:49:40.052Z,53.06
2023-02-14T09:50:48.254Z,52.70
2023-02-14T09:51:52.273Z,53.01
2023-02-14T09:52:58.196Z,52.65
2023-02-14T09:54:10.199Z,51.90
2023-02-14T09:55:17.317Z,51.76
2023-02-14T09:56:51.583Z,51.85
2023-02-14T09:57:57.129Z,51.19
2023-02-14T09:59:15.713Z,51.71
2023-02-14T10:00:25.221Z,50.54
2023-02-14T10:01:35.776Z,50.70
2023-02-14T10:02:58.678Z,50.67
2023-02-14T10:04:15.494Z,50.19
2023-02-14T10:05:23.191Z,50.26
2023-02-14T10:07:02.458Z,50.28
2023-02-14T10:08:42.824Z,50.13
2023-02-14T10:10:07.065Z,50.23
2023-02-14T10:11:12.525Z,49.85
2023-02-14T10:12:22.844Z,49.43
2023-02-14T10:13:43.276Z,48.88
2023-02-14T10:14:45.646Z,49.54
2023-02-14T10:16:20.067Z,49.53
2023-02-14T10:17:37.147Z,49.57
2023-02-14T10:19:06.823Z,49.18
2023-02-14T10:20:23.864Z,49.10
2023-02-14T10:21:42.056Z,48.77
2023-02-14T10:23:10.960Z,48.36
2023-02-14T10:24:33.962Z,47.30
2023-02-14T10:25:45.388Z,47.49
2023-02-14T10:26:48.761Z,47.50
2023-02-14T10:27:53.367Z,47.54
2023-02-14T10:28:56.010Z,47.79
2023-02-14T10:30:04.808Z,48.00
2023-02-14T10:31:27.538Z,47.56
2023-02-14T10:32:38.362Z,47.35
2023-02-14T10:33:42.685Z,47.62
2023-02-14T10:34:51.950Z,47.49
2023-02-14T10:36:04.193Z,47.43
2023-02-14T10:37:15.210Z,47.18
2023-02-14T10:38:35.121Z,47.28
2023-02-14T10:39:46.558Z,47.20
2023-02-14T10:40:57.440Z,47.41
2023-02-14T10:42:42.697Z,47.55
2023-02-14T10:43:50.347Z,47.27
2023-02-14T10:45:09.694Z,46.94
2023-02-14T10:46:38.903Z,46.64
2023-02-14T10:47:57.449Z,47.31
2023-02-14T10:49:08.657Z,46.90
2023-02-14T10:50:10.369Z,46.35
2023-02-14T10:51:47.162Z,47.46
2023-02-14T10:52:59.403Z,46.60
2023-02-14T10:54:21.774Z,46.33
2023-02-14T10:55:59.395Z,45.64
2023-02-14T10:57:17.672Z,46.00
2023-02-14T10:58:21.677Z,47.26
2023-02-14T10:59:41.256Z,45.97
2023-02-14T11:00:58.364Z,45.10
2023-02-14T11:02:01.693Z,44.59
2023-02-14T11:03:07.523Z,45.36
2023-02-14T11:04:12.788Z,45.46
2023-02-14T11:05:28.235Z,45.36
2023-02-14T11:06:31.098Z,45.26
2023-02-14T11:07:33.528Z,45.64
2023-02-14T11:08:37.850Z,45.23
2023-02-14T11:09:40.054Z,45.35
2023-02-14T11:10:44.448Z,45.63
2023-02-14T11:11:54.190Z,45.35
2023-02-14T11:12:59.095Z,45.10
2023-02-14T11:15:36.329Z,44.29
2023-02-14T11:16:38.410Z,44.03
2023-02-14T11:17:41.037Z,43.70
2023-02-14T11:18:43.069Z,44.79
2023-02-14T11:20:09.656Z,44.37
2023-02-14T11:21:21.195Z,45.06
2023-02-14T11:22:30.640Z,44.52
2023-02-14T11:23:40.084Z,44.29
2023-02-14T11:24:42.719Z,44.18
2023-02-14T11:25:55.574Z,44.11
2023-02-14T11:27:00.985Z,44.37
2023-02-14T11:28:05.642Z,44.11
2023-02-14T11:29:19.219Z,44.40
2023-02-14T11:30:28.201Z,44.82
2023-02-14T11:31:35.619Z,43.97
2023-02-14T11:32:39.959Z,43.89
2023-02-14T11:33:44.422Z,44.35
2023-02-14T11:34:52.868Z,44.35
2023-02-14T11:35:55.147Z,44.32
2023-02-14T11:36:57.084Z,43.95
2023-02-14T11:37:59.230Z,43.91
2023-02-14T11:39:14.019Z,44.21
2023-02-14T11:40:28.061Z,42.93
2023-02-14T11:41:49.877Z,42.97
2023-02-14T11:42:57.815Z,42.82
2023-02-14T11:44:22.334Z,42.82
2023-02-14T11:45:28.140Z,43.26
2023-02-14T11:46:36.142Z,43.71
2023-02-14T11:47:43.022Z,43.30
2023-02-14T11:49:01.507Z,42.88
2023-02-14T11:50:06.825Z,43.32
2023-02-14T11:51:15.704Z,43.30
2023-02-14T11:52:19.650Z,42.67
2023-02-14T11:53:24.906Z,43.82
2023-02-14T11:54:39.704Z,42.95
2023-02-14T11:55:41.607Z,43.42
2023-02-14T11:56:51.902Z,43.12
2023-02-14T11:57:55.171Z,42.99
2023-02-14T11:59:00.212Z,42.90
2023-02-14T12:00:05.476Z,42.49
2023-02-14T12:01:11.976Z,43.06
2023-02-14T12:02:14.021Z,42.81
2023-02-14T12:03:19.536Z,42.62
2023-02-14T12:04:41.375Z,42.45
2023-02-14T12:05:50.585Z,42.61
2023-02-14T12:06:52.634Z,42.60
2023-02-14T12:07:58.027Z,42.19
2023-02-14T12:09:32.058Z,42.44
2023-02-14T12:10:35.667Z,42.75
2023-02-14T12:11:37.866Z,42.74
2023-02-14T12:13:08.958Z,42.77
2023-02-14T12:14:24.796Z,42.32
2023-02-14T12:15:43.834Z,42.53
2023-02-14T12:17:15.334Z,42.77
2023-02-14T12:18:38.010Z,42.61
2023-02-14T12:20:14.476Z,42.90
2023-02-14T12:21:19.167Z,43.34
2023-02-14T12:22:29.285Z,42.75
2023-02-14T12:23:46.243Z,41.97
2023-02-14T12:25:01.933Z,42.45
2023-02-14T12:26:30.849Z,43.05
2023-02-14T12:27:48.666Z,42.52
2023-02-14T12:29:18.121Z,42.70
2023-02-14T12:30:25.841Z,42.08
2023-02-14T12:31:27.895Z,44.14
2023-02-14T12:32:31.714Z,44.64
2023-02-14T12:33:33.665Z,43.08
2023-02-14T12:34:36.148Z,41.83
2023-02-14T12:36:02.377Z,41.76
2023-02-14T12:37:11.063Z,42.14
2023-02-14T12:38:39.354Z,42.03
2023-02-14T12:40:09.274Z,41.31
2023-02-14T12:41:16.771Z,41.55
2023-02-14T12:42:47.398Z,41.57
2023-02-14T12:43:53.644Z,42.53
2023-02-14T12:45:33.291Z,41.52
2023-02-14T12:46:59.315Z,40.60
2023-02-14T12:48:29.853Z,40.52
2023-02-14T12:49:40.950Z,40.50
2023-02-14T12:50:54.710Z,40.64
2023-02-14T12:52:12.148Z,40.57
2023-02-14T12:53:35.071Z,41.02
2023-02-14T12:54:40.047Z,40.87
2023-02-14T12:55:57.115Z,40.58
2023-02-14T12:57:17.689Z,40.18
2023-02-14T12:58:44.930Z,40.86
2023-02-14T13:00:09.721Z,40.10
2023-02-14T13:01:24.759Z,39.79
2023-02-14T13:02:49.797Z,39.41
2023-02-14T13:04:17.313Z,39.78
2023-02-14T13:05:35.932Z,39.72
2023-02-14T13:06:41.543Z,39.86
2023-02-14T13:08:08.101Z,40.29
2023-02-14T13:09:40.489Z,40.08
2023-02-14T13:11:25.966Z,40.20
2023-02-14T13:12:38.710Z,40.22
2023-02-14T13:14:03.771Z,40.12
2023-02-14T13:15:39.574Z,40.29
2023-02-14T13:17:06.816Z,40.47
2023-02-14T13:18:36.849Z,40.60
2023-02-14T13:19:53.402Z,40.52
2023-02-14T13:21:03.768Z,40.72
2023-02-14T13:22:08.739Z,40.23
2023-02-14T13:23:19.537Z,40.47
2023-02-14T13:24:24.410Z,41.00
2023-02-14T13:25:33.577Z,41.04
2023-02-14T13:26:39.071Z,41.19
2023-02-14T13:27:41.717Z,41.08
2023-02-14T13:28:52.199Z,40.80
2023-02-14T13:29:58.068Z,40.69
2023-02-14T13:31:01.793Z,40.31
2023-02-14T13:32:04.948Z,40.22
2023-02-14T13:33:23.461Z,40.34
2023-02-14T13:34:42.660Z,39.82
2023-02-14T13:35:45.147Z,40.11
2023-02-14T13:36:47.628Z,40.54
2023-02-14T13:37:57.768Z,40.09
2023-02-14T13:39:00.628Z,39.63
2023-02-14T13:40:07.790Z,39.60
2023-02-14T13:41:10.770Z,39.73
2023-02-14T13:42:13.466Z,39.98
2023-02-14T13:43:47.566Z,39.95
2023-02-14T13:44:50.739Z,39.64
2023-02-14T13:45:55.540Z,39.45
2023-02-14T13:46:57.773Z,39.80
2023-02-14T13:48:15.061Z,39.48
2023-02-14T13:49:23.273Z,39.14
2023-02-14T13:50:25.574Z,39.21
2023-02-14T13:51:48.712Z,39.56
2023-02-14T13:52:50.656Z,39.10
2023-02-14T13:53:52.624Z,39.01
2023-02-14T13:55:01.958Z,38.97
2023-02-14T13:56:17.475Z,38.81
2023-02-14T13:57:36.555Z,38.55
2023-02-14T13:58:49.526Z,38.53
2023-02-14T14:00:19.204Z,38.61
2023-02-14T14:01:35.729Z,37.68
2023-02-14T14:02:48.864Z,37.03
2023-02-14T14:03:57.744Z,36.54
2023-02-14T14:04:59.740Z,36.37
2023-02-14T14:06:06.599Z,36.62
2023-02-14T14:07:20.981Z,36.93
2023-02-14T14:08:23.380Z,36.77
2023-02-14T14:09:43.994Z,36.47
2023-02-14T14:10:56.205Z,36.33
2023-02-14T14:11:58.133Z,36.54
2023-02-14T14:12:59.902Z,36.31
2023-02-14T14:14:21.554Z,36.36
2023-02-14T14:15:23.325Z,36.33
2023-02-14T14:16:28.317Z,36.48
2023-02-14T14:17:31.788Z,36.60
2023-02-14T14:18:43.057Z,36.97
2023-02-14T14:19:47.102Z,37.35
2023-02-14T14:20:49.453Z,36.55
2023-02-14T14:22:10.353Z,36.43
2023-02-14T14:23:32.192Z,36.54
2023-02-14T14:24:36.116Z,36.51
2023-02-14T14:25:41.022Z,36.69
2023-02-14T14:26:45.945Z,37.21
2023-02-14T14:27:47.972Z,36.81
2023-02-14T14:28:49.853Z,37.17
2023-02-14T14:29:58.550Z,37.37